sensor_id;sensor_type;location;lat;lon;timestamp;P1;durP1;ratioP1;P2;durP2;ratioP2
22166;SDS011;11249;52.468;13.776;2023-07-20T00:00:03;7.07;;;5.25;;
22166;SDS011;11249;52.468;13.776;2023-07-20T00:02:30;6.82;;;6.13;;
22166;SDS011;11249;52.468;13.776;2023-07-20T00:04:56;6.15;;;5.40;;
22166;SDS011;11249;52.468;13.776;2023-07-20T00:07:23;7.13;;;5.82;;
22166;SDS011;11249;52.468;13.776;2023-07-20T00:09:51;7.25;;;5.30;;
22166;SDS011;11249;52.468;13.776;2023-07-20T00:12:18;9.68;;;5.45;;
22166;SDS011;11249;52.468;13.776;2023-07-20T00:14:44;7.32;;;5.07;;
22166;SDS011;11249;52.468;13.776;2023-07-20T00:17:11;6.53;;;5.88;;
22166;SDS011;11249;52.468;13.776;2023-07-20T00:19:38;8.50;;;6.45;;
22166;SDS011;11249;52.468;13.776;2023-07-20T00:22:05;6.43;;;5.82;;
22166;SDS011;11249;52.468;13.776;2023-07-20T00:24:31;7.97;;;6.00;;
22166;SDS011;11249;52.468;13.776;2023-07-20T00:26:58;10.02;;;6.22;;
22166;SDS011;11249;52.468;13.776;2023-07-20T00:29:27;8.02;;;5.82;;
22166;SDS011;11249;52.468;13.776;2023-07-20T00:31:54;7.15;;;6.38;;
22166;SDS011;11249;52.468;13.776;2023-07-20T00:34:21;10.55;;;6.15;;
22166;SDS011;11249;52.468;13.776;2023-07-20T00:36:47;7.05;;;6.13;;
22166;SDS011;11249;52.468;13.776;2023-07-20T00:39:15;7.65;;;6.40;;
22166;SDS011;11249;52.468;13.776;2023-07-20T00:41:42;6.35;;;5.75;;
22166;SDS011;11249;52.468;13.776;2023-07-20T00:44:08;10.38;;;6.30;;
22166;SDS011;11249;52.468;13.776;2023-07-20T00:46:35;7.95;;;6.22;;
22166;SDS011;11249;52.468;13.776;2023-07-20T00:49:02;6.95;;;6.13;;
22166;SDS011;11249;52.468;13.776;2023-07-20T00:51:29;8.52;;;6.47;;
22166;SDS011;11249;52.468;13.776;2023-07-20T00:53:56;10.43;;;6.20;;
22166;SDS011;11249;52.468;13.776;2023-07-20T00:56:23;7.05;;;5.97;;
22166;SDS011;11249;52.468;13.776;2023-07-20T00:58:50;6.38;;;5.70;;
22166;SDS011;11249;52.468;13.776;2023-07-20T01:01:18;7.10;;;6.40;;
22166;SDS011;11249;52.468;13.776;2023-07-20T01:03:45;7.88;;;6.32;;
22166;SDS011;11249;52.468;13.776;2023-07-20T01:06:22;7.85;;;6.55;;
22166;SDS011;11249;52.468;13.776;2023-07-20T01:09:11;9.95;;;7.28;;
22166;SDS011;11249;52.468;13.776;2023-07-20T01:11:51;9.77;;;7.03;;
22166;SDS011;11249;52.468;13.776;2023-07-20T01:14:23;9.50;;;6.60;;
22166;SDS011;11249;52.468;13.776;2023-07-20T01:16:51;10.45;;;6.47;;
22166;SDS011;11249;52.468;13.776;2023-07-20T01:19:19;9.70;;;6.90;;
22166;SDS011;11249;52.468;13.776;2023-07-20T01:21:49;10.50;;;6.95;;
22166;SDS011;11249;52.468;13.776;2023-07-20T01:24:32;9.77;;;7.15;;
22166;SDS011;11249;52.468;13.776;2023-07-20T01:27:17;9.25;;;7.00;;
22166;SDS011;11249;52.468;13.776;2023-07-20T01:32:38;10.18;;;6.85;;
22166;SDS011;11249;52.468;13.776;2023-07-20T01:35:07;8.47;;;6.80;;
22166;SDS011;11249;52.468;13.776;2023-07-20T01:37:36;8.20;;;6.90;;
22166;SDS011;11249;52.468;13.776;2023-07-20T01:40:04;9.23;;;6.80;;
22166;SDS011;11249;52.468;13.776;2023-07-20T01:42:31;7.60;;;6.88;;
22166;SDS011;11249;52.468;13.776;2023-07-20T01:44:58;9.27;;;6.50;;
22166;SDS011;11249;52.468;13.776;2023-07-20T01:47:25;8.50;;;7.38;;
22166;SDS011;11249;52.468;13.776;2023-07-20T01:49:52;8.23;;;7.30;;
22166;SDS011;11249;52.468;13.776;2023-07-20T01:52:18;8.27;;;6.65;;
22166;SDS011;11249;52.468;13.776;2023-07-20T01:54:45;9.00;;;7.55;;
22166;SDS011;11249;52.468;13.776;2023-07-20T01:57:12;13.20;;;8.60;;
22166;SDS011;11249;52.468;13.776;2023-07-20T01:59:38;10.85;;;7.40;;
22166;SDS011;11249;52.468;13.776;2023-07-20T02:02:05;8.95;;;7.63;;
22166;SDS011;11249;52.468;13.776;2023-07-20T02:04:32;12.23;;;8.07;;
22166;SDS011;11249;52.468;13.776;2023-07-20T02:06:58;10.38;;;8.35;;
22166;SDS011;11249;52.468;13.776;2023-07-20T02:09:25;13.45;;;8.35;;
22166;SDS011;11249;52.468;13.776;2023-07-20T02:11:52;11.05;;;8.57;;
22166;SDS011;11249;52.468;13.776;2023-07-20T02:14:19;12.82;;;8.93;;
22166;SDS011;11249;52.468;13.776;2023-07-20T02:16:45;9.32;;;8.43;;
22166;SDS011;11249;52.468;13.776;2023-07-20T02:19:14;12.20;;;8.32;;
22166;SDS011;11249;52.468;13.776;2023-07-20T02:21:41;11.27;;;9.50;;
22166;SDS011;11249;52.468;13.776;2023-07-20T02:24:08;14.40;;;9.05;;
22166;SDS011;11249;52.468;13.776;2023-07-20T02:26:34;11.93;;;8.85;;
22166;SDS011;11249;52.468;13.776;2023-07-20T02:29:01;13.35;;;8.95;;
22166;SDS011;11249;52.468;13.776;2023-07-20T02:31:31;9.48;;;8.50;;
22166;SDS011;11249;52.468;13.776;2023-07-20T02:33:57;8.85;;;8.02;;
22166;SDS011;11249;52.468;13.776;2023-07-20T02:36:24;11.65;;;8.38;;
22166;SDS011;11249;52.468;13.776;2023-07-20T02:38:51;12.07;;;8.60;;
22166;SDS011;11249;52.468;13.776;2023-07-20T02:41:18;9.40;;;8.48;;
22166;SDS011;11249;52.468;13.776;2023-07-20T02:43:45;10.75;;;7.43;;
22166;SDS011;11249;52.468;13.776;2023-07-20T02:46:11;10.25;;;8.40;;
22166;SDS011;11249;52.468;13.776;2023-07-20T02:48:38;9.23;;;8.32;;
22166;SDS011;11249;52.468;13.776;2023-07-20T02:51:04;9.00;;;8.20;;
22166;SDS011;11249;52.468;13.776;2023-07-20T02:53:31;9.25;;;8.35;;
22166;SDS011;11249;52.468;13.776;2023-07-20T02:55:58;17.10;;;8.43;;
22166;SDS011;11249;52.468;13.776;2023-07-20T02:58:25;10.45;;;8.30;;
22166;SDS011;11249;52.468;13.776;2023-07-20T03:00:51;12.30;;;9.13;;
22166;SDS011;11249;52.468;13.776;2023-07-20T03:03:18;10.50;;;9.10;;
22166;SDS011;11249;52.468;13.776;2023-07-20T03:05:46;11.48;;;8.57;;
22166;SDS011;11249;52.468;13.776;2023-07-20T03:08:12;10.18;;;9.00;;
22166;SDS011;11249;52.468;13.776;2023-07-20T03:10:39;8.50;;;7.57;;
22166;SDS011;11249;52.468;13.776;2023-07-20T03:13:07;9.32;;;8.20;;
22166;SDS011;11249;52.468;13.776;2023-07-20T03:15:34;8.95;;;8.05;;
22166;SDS011;11249;52.468;13.776;2023-07-20T03:18:00;13.55;;;9.63;;
22166;SDS011;11249;52.468;13.776;2023-07-20T03:20:27;14.57;;;9.98;;
22166;SDS011;11249;52.468;13.776;2023-07-20T03:22:54;10.77;;;9.48;;
22166;SDS011;11249;52.468;13.776;2023-07-20T03:25:21;11.73;;;10.13;;
22166;SDS011;11249;52.468;13.776;2023-07-20T03:27:48;10.70;;;9.63;;
22166;SDS011;11249;52.468;13.776;2023-07-20T03:30:15;13.57;;;10.15;;
22166;SDS011;11249;52.468;13.776;2023-07-20T03:32:41;11.52;;;9.40;;
22166;SDS011;11249;52.468;13.776;2023-07-20T03:35:08;12.88;;;10.55;;
22166;SDS011;11249;52.468;13.776;2023-07-20T03:37:35;11.43;;;10.15;;
22166;SDS011;11249;52.468;13.776;2023-07-20T03:40:02;14.02;;;10.88;;
22166;SDS011;11249;52.468;13.776;2023-07-20T03:42:30;13.02;;;11.73;;
22166;SDS011;11249;52.468;13.776;2023-07-20T03:44:57;14.35;;;11.88;;
22166;SDS011;11249;52.468;13.776;2023-07-20T03:47:24;13.32;;;11.80;;
22166;SDS011;11249;52.468;13.776;2023-07-20T03:49:50;16.00;;;11.10;;
22166;SDS011;11249;52.468;13.776;2023-07-20T03:52:17;13.93;;;12.50;;
22166;SDS011;11249;52.468;13.776;2023-07-20T03:54:44;16.02;;;12.63;;
22166;SDS011;11249;52.468;13.776;2023-07-20T03:57:11;15.38;;;13.43;;
22166;SDS011;11249;52.468;13.776;2023-07-20T03:59:38;16.70;;;14.43;;
22166;SDS011;11249;52.468;13.776;2023-07-20T04:02:05;17.33;;;14.98;;
22166;SDS011;11249;52.468;13.776;2023-07-20T04:04:32;14.70;;;13.40;;
22166;SDS011;11249;52.468;13.776;2023-07-20T04:06:59;16.63;;;14.82;;
22166;SDS011;11249;52.468;13.776;2023-07-20T04:09:25;16.17;;;14.48;;
22166;SDS011;11249;52.468;13.776;2023-07-20T04:11:52;16.75;;;15.05;;
22166;SDS011;11249;52.468;13.776;2023-07-20T04:14:19;17.45;;;15.65;;
22166;SDS011;11249;52.468;13.776;2023-07-20T04:16:46;17.63;;;15.23;;
22166;SDS011;11249;52.468;13.776;2023-07-20T04:19:14;17.73;;;15.85;;
22166;SDS011;11249;52.468;13.776;2023-07-20T04:21:41;16.77;;;15.07;;
22166;SDS011;11249;52.468;13.776;2023-07-20T04:24:08;20.88;;;16.55;;
22166;SDS011;11249;52.468;13.776;2023-07-20T04:26:35;17.42;;;15.65;;
22166;SDS011;11249;52.468;13.776;2023-07-20T04:29:02;18.55;;;15.32;;
22166;SDS011;11249;52.468;13.776;2023-07-20T04:31:30;20.15;;;16.35;;
22166;SDS011;11249;52.468;13.776;2023-07-20T04:33:59;17.15;;;15.55;;
22166;SDS011;11249;52.468;13.776;2023-07-20T04:36:26;17.33;;;15.63;;
22166;SDS011;11249;52.468;13.776;2023-07-20T04:38:53;20.00;;;16.83;;
22166;SDS011;11249;52.468;13.776;2023-07-20T04:41:19;18.80;;;15.50;;
22166;SDS011;11249;52.468;13.776;2023-07-20T04:43:47;17.20;;;15.45;;
22166;SDS011;11249;52.468;13.776;2023-07-20T04:46:13;19.08;;;16.77;;
22166;SDS011;11249;52.468;13.776;2023-07-20T04:48:40;18.38;;;16.13;;
22166;SDS011;11249;52.468;13.776;2023-07-20T04:51:07;20.17;;;16.30;;
22166;SDS011;11249;52.468;13.776;2023-07-20T04:53:34;19.42;;;16.85;;
22166;SDS011;11249;52.468;13.776;2023-07-20T04:56:00;22.70;;;17.63;;
22166;SDS011;11249;52.468;13.776;2023-07-20T04:58:27;21.75;;;16.50;;
22166;SDS011;11249;52.468;13.776;2023-07-20T05:00:54;17.15;;;15.35;;
22166;SDS011;11249;52.468;13.776;2023-07-20T05:03:21;18.45;;;15.13;;
22166;SDS011;11249;52.468;13.776;2023-07-20T05:05:47;19.52;;;16.00;;
22166;SDS011;11249;52.468;13.776;2023-07-20T05:08:15;17.80;;;15.90;;
22166;SDS011;11249;52.468;13.776;2023-07-20T05:10:42;20.60;;;15.82;;
22166;SDS011;11249;52.468;13.776;2023-07-20T05:13:09;17.33;;;14.85;;
22166;SDS011;11249;52.468;13.776;2023-07-20T05:15:36;21.60;;;16.08;;
22166;SDS011;11249;52.468;13.776;2023-07-20T05:18:03;21.15;;;16.60;;
22166;SDS011;11249;52.468;13.776;2023-07-20T05:20:31;21.00;;;16.92;;
22166;SDS011;11249;52.468;13.776;2023-07-20T05:22:59;21.05;;;16.52;;
22166;SDS011;11249;52.468;13.776;2023-07-20T05:25:27;20.60;;;16.92;;
22166;SDS011;11249;52.468;13.776;2023-07-20T05:27:56;18.87;;;16.83;;
22166;SDS011;11249;52.468;13.776;2023-07-20T05:30:23;20.10;;;15.77;;
22166;SDS011;11249;52.468;13.776;2023-07-20T05:32:50;20.75;;;16.80;;
22166;SDS011;11249;52.468;13.776;2023-07-20T05:35:19;17.85;;;14.07;;
22166;SDS011;11249;52.468;13.776;2023-07-20T05:37:46;21.25;;;15.73;;
22166;SDS011;11249;52.468;13.776;2023-07-20T05:40:13;18.42;;;16.02;;
22166;SDS011;11249;52.468;13.776;2023-07-20T05:42:41;21.60;;;16.30;;
22166;SDS011;11249;52.468;13.776;2023-07-20T05:45:07;18.55;;;15.73;;
22166;SDS011;11249;52.468;13.776;2023-07-20T05:47:34;20.58;;;15.10;;
22166;SDS011;11249;52.468;13.776;2023-07-20T05:50:01;18.88;;;15.98;;
22166;SDS011;11249;52.468;13.776;2023-07-20T05:52:29;18.15;;;16.23;;
22166;SDS011;11249;52.468;13.776;2023-07-20T05:54:56;19.33;;;14.77;;
22166;SDS011;11249;52.468;13.776;2023-07-20T05:57:23;18.65;;;15.35;;
22166;SDS011;11249;52.468;13.776;2023-07-20T05:59:50;19.20;;;16.02;;
22166;SDS011;11249;52.468;13.776;2023-07-20T06:02:17;17.63;;;14.25;;
22166;SDS011;11249;52.468;13.776;2023-07-20T06:04:43;15.65;;;13.68;;
22166;SDS011;11249;52.468;13.776;2023-07-20T06:07:10;16.23;;;14.48;;
22166;SDS011;11249;52.468;13.776;2023-07-20T06:09:37;15.95;;;13.25;;
22166;SDS011;11249;52.468;13.776;2023-07-20T06:12:04;17.00;;;13.07;;
22166;SDS011;11249;52.468;13.776;2023-07-20T06:14:31;15.43;;;11.90;;
22166;SDS011;11249;52.468;13.776;2023-07-20T06:16:57;10.18;;;9.18;;
22166;SDS011;11249;52.468;13.776;2023-07-20T06:19:24;13.02;;;10.18;;
22166;SDS011;11249;52.468;13.776;2023-07-20T06:21:51;9.95;;;8.77;;
22166;SDS011;11249;52.468;13.776;2023-07-20T06:24:18;10.48;;;9.38;;
22166;SDS011;11249;52.468;13.776;2023-07-20T06:26:45;9.75;;;8.75;;
22166;SDS011;11249;52.468;13.776;2023-07-20T06:29:11;9.20;;;8.30;;
22166;SDS011;11249;52.468;13.776;2023-07-20T06:31:38;8.13;;;7.15;;
22166;SDS011;11249;52.468;13.776;2023-07-20T06:34:05;10.55;;;7.40;;
22166;SDS011;11249;52.468;13.776;2023-07-20T06:36:31;7.63;;;6.93;;
22166;SDS011;11249;52.468;13.776;2023-07-20T06:38:58;9.57;;;7.03;;
22166;SDS011;11249;52.468;13.776;2023-07-20T06:41:28;7.53;;;6.82;;
22166;SDS011;11249;52.468;13.776;2023-07-20T06:43:57;7.57;;;6.85;;
22166;SDS011;11249;52.468;13.776;2023-07-20T06:46:27;6.85;;;5.70;;
22166;SDS011;11249;52.468;13.776;2023-07-20T06:48:54;7.50;;;5.65;;
22166;SDS011;11249;52.468;13.776;2023-07-20T06:51:24;6.55;;;5.88;;
22166;SDS011;11249;52.468;13.776;2023-07-20T06:53:51;6.95;;;6.03;;
22166;SDS011;11249;52.468;13.776;2023-07-20T06:56:18;6.75;;;5.93;;
22166;SDS011;11249;52.468;13.776;2023-07-20T06:58:48;6.15;;;5.53;;
22166;SDS011;11249;52.468;13.776;2023-07-20T07:01:15;8.30;;;5.20;;
22166;SDS011;11249;52.468;13.776;2023-07-20T07:03:43;6.82;;;5.72;;
22166;SDS011;11249;52.468;13.776;2023-07-20T07:06:10;5.22;;;4.72;;
22166;SDS011;11249;52.468;13.776;2023-07-20T07:08:37;9.40;;;6.38;;
22166;SDS011;11249;52.468;13.776;2023-07-20T07:11:03;6.32;;;5.40;;
22166;SDS011;11249;52.468;13.776;2023-07-20T07:13:31;8.00;;;5.55;;
22166;SDS011;11249;52.468;13.776;2023-07-20T07:15:58;6.40;;;5.60;;
22166;SDS011;11249;52.468;13.776;2023-07-20T07:18:25;8.55;;;5.88;;
22166;SDS011;11249;52.468;13.776;2023-07-20T07:20:53;6.03;;;5.45;;
22166;SDS011;11249;52.468;13.776;2023-07-20T07:23:20;7.03;;;5.38;;
22166;SDS011;11249;52.468;13.776;2023-07-20T07:25:47;7.00;;;4.95;;
22166;SDS011;11249;52.468;13.776;2023-07-20T07:28:14;6.30;;;5.72;;
22166;SDS011;11249;52.468;13.776;2023-07-20T07:30:41;6.45;;;5.10;;
22166;SDS011;11249;52.468;13.776;2023-07-20T07:33:08;8.75;;;5.28;;
22166;SDS011;11249;52.468;13.776;2023-07-20T07:35:36;6.82;;;5.05;;
22166;SDS011;11249;52.468;13.776;2023-07-20T07:38:03;4.93;;;4.47;;
22166;SDS011;11249;52.468;13.776;2023-07-20T07:40:49;5.57;;;4.47;;
22166;SDS011;11249;52.468;13.776;2023-07-20T07:43:16;3.63;;;3.22;;
22166;SDS011;11249;52.468;13.776;2023-07-20T07:45:43;2.97;;;2.67;;
22166;SDS011;11249;52.468;13.776;2023-07-20T07:48:09;4.78;;;2.85;;
22166;SDS011;11249;52.468;13.776;2023-07-20T07:50:40;6.75;;;2.72;;
22166;SDS011;11249;52.468;13.776;2023-07-20T07:53:07;4.80;;;2.50;;
22166;SDS011;11249;52.468;13.776;2023-07-20T07:55:35;5.28;;;2.28;;
22166;SDS011;11249;52.468;13.776;2023-07-20T07:58:02;3.17;;;2.03;;
22166;SDS011;11249;52.468;13.776;2023-07-20T08:00:28;4.90;;;2.30;;
22166;SDS011;11249;52.468;13.776;2023-07-20T08:02:55;3.90;;;2.20;;
22166;SDS011;11249;52.468;13.776;2023-07-20T08:05:22;3.92;;;2.40;;
22166;SDS011;11249;52.468;13.776;2023-07-20T08:07:49;3.17;;;2.50;;
22166;SDS011;11249;52.468;13.776;2023-07-20T08:10:15;2.60;;;2.28;;
22166;SDS011;11249;52.468;13.776;2023-07-20T08:12:42;3.55;;;1.98;;
22166;SDS011;11249;52.468;13.776;2023-07-20T08:15:10;2.95;;;1.90;;
22166;SDS011;11249;52.468;13.776;2023-07-20T08:17:37;3.70;;;1.75;;
22166;SDS011;11249;52.468;13.776;2023-07-20T08:20:05;3.17;;;1.98;;
22166;SDS011;11249;52.468;13.776;2023-07-20T08:22:32;1.40;;;1.30;;
22166;SDS011;11249;52.468;13.776;2023-07-20T08:24:59;2.97;;;1.25;;
22166;SDS011;11249;52.468;13.776;2023-07-20T08:27:26;2.78;;;1.52;;
22166;SDS011;11249;52.468;13.776;2023-07-20T08:29:53;3.72;;;1.38;;
22166;SDS011;11249;52.468;13.776;2023-07-20T08:32:19;2.78;;;1.67;;
22166;SDS011;11249;52.468;13.776;2023-07-20T08:34:46;1.80;;;1.40;;
22166;SDS011;11249;52.468;13.776;2023-07-20T08:37:13;2.63;;;1.67;;
22166;SDS011;11249;52.468;13.776;2023-07-20T08:39:39;4.00;;;1.25;;
22166;SDS011;11249;52.468;13.776;2023-07-20T08:42:06;3.25;;;1.88;;
22166;SDS011;11249;52.468;13.776;2023-07-20T08:44:33;2.30;;;1.25;;
22166;SDS011;11249;52.468;13.776;2023-07-20T08:47:02;1.38;;;1.27;;
22166;SDS011;11249;52.468;13.776;2023-07-20T08:49:33;2.75;;;1.13;;
22166;SDS011;11249;52.468;13.776;2023-07-20T08:52:00;8.90;;;1.70;;
22166;SDS011;11249;52.468;13.776;2023-07-20T08:54:29;1.70;;;1.00;;
22166;SDS011;11249;52.468;13.776;2023-07-20T08:57:01;1.63;;;1.08;;
22166;SDS011;11249;52.468;13.776;2023-07-20T08:59:30;1.58;;;0.90;;
22166;SDS011;11249;52.468;13.776;2023-07-20T09:01:58;2.53;;;0.80;;
22166;SDS011;11249;52.468;13.776;2023-07-20T09:04:26;0.93;;;0.80;;
22166;SDS011;11249;52.468;13.776;2023-07-20T09:06:53;2.00;;;0.82;;
22166;SDS011;11249;52.468;13.776;2023-07-20T09:09:19;4.43;;;1.25;;
22166;SDS011;11249;52.468;13.776;2023-07-20T09:11:49;1.00;;;1.00;;
22166;SDS011;11249;52.468;13.776;2023-07-20T09:14:16;2.90;;;1.00;;
22166;SDS011;11249;52.468;13.776;2023-07-20T09:16:53;1.38;;;1.27;;
22166;SDS011;11249;52.468;13.776;2023-07-20T09:19:21;1.33;;;1.20;;
22166;SDS011;11249;52.468;13.776;2023-07-20T09:21:49;1.67;;;1.10;;
22166;SDS011;11249;52.468;13.776;2023-07-20T09:24:19;1.98;;;1.08;;
22166;SDS011;11249;52.468;13.776;2023-07-20T09:26:47;1.92;;;1.13;;
22166;SDS011;11249;52.468;13.776;2023-07-20T09:29:17;1.27;;;0.70;;
22166;SDS011;11249;52.468;13.776;2023-07-20T09:32:03;1.70;;;0.80;;
22166;SDS011;11249;52.468;13.776;2023-07-20T09:34:31;0.63;;;0.60;;
22166;SDS011;11249;52.468;13.776;2023-07-20T09:37:01;1.02;;;0.90;;
22166;SDS011;11249;52.468;13.776;2023-07-20T09:39:29;1.10;;;1.00;;
22166;SDS011;11249;52.468;13.776;2023-07-20T09:41:59;1.20;;;0.90;;
22166;SDS011;11249;52.468;13.776;2023-07-20T09:44:30;1.33;;;0.80;;
22166;SDS011;11249;52.468;13.776;2023-07-20T09:47:02;2.42;;;0.98;;
22166;SDS011;11249;52.468;13.776;2023-07-20T09:49:31;1.00;;;0.90;;
22166;SDS011;11249;52.468;13.776;2023-07-20T09:52:18;2.88;;;1.00;;
22166;SDS011;11249;52.468;13.776;2023-07-20T09:54:48;1.20;;;1.10;;
22166;SDS011;11249;52.468;13.776;2023-07-20T09:57:16;2.05;;;0.85;;
22166;SDS011;11249;52.468;13.776;2023-07-20T09:59:43;0.90;;;0.75;;
22166;SDS011;11249;52.468;13.776;2023-07-20T10:02:13;2.97;;;0.85;;
22166;SDS011;11249;52.468;13.776;2023-07-20T10:04:52;1.27;;;0.70;;
22166;SDS011;11249;52.468;13.776;2023-07-20T10:07:21;1.80;;;0.80;;
22166;SDS011;11249;52.468;13.776;2023-07-20T10:09:51;1.08;;;0.70;;
22166;SDS011;11249;52.468;13.776;2023-07-20T10:12:19;3.20;;;0.68;;
22166;SDS011;11249;52.468;13.776;2023-07-20T10:14:53;2.63;;;0.70;;
22166;SDS011;11249;52.468;13.776;2023-07-20T10:17:28;0.90;;;0.68;;
22166;SDS011;11249;52.468;13.776;2023-07-20T10:19:56;1.35;;;0.68;;
22166;SDS011;11249;52.468;13.776;2023-07-20T10:22:27;3.35;;;0.80;;
22166;SDS011;11249;52.468;13.776;2023-07-20T10:24:56;0.82;;;0.45;;
22166;SDS011;11249;52.468;13.776;2023-07-20T10:27:25;0.65;;;0.50;;
22166;SDS011;11249;52.468;13.776;2023-07-20T10:29:52;1.13;;;0.73;;
22166;SDS011;11249;52.468;13.776;2023-07-20T10:32:21;1.35;;;0.80;;
22166;SDS011;11249;52.468;13.776;2023-07-20T10:34:51;2.85;;;0.60;;
22166;SDS011;11249;52.468;13.776;2023-07-20T10:40:25;1.38;;;0.73;;
22166;SDS011;11249;52.468;13.776;2023-07-20T10:43:05;2.22;;;1.00;;
22166;SDS011;11249;52.468;13.776;2023-07-20T10:45:34;1.05;;;0.60;;
22166;SDS011;11249;52.468;13.776;2023-07-20T10:48:23;3.38;;;0.80;;
22166;SDS011;11249;52.468;13.776;2023-07-20T10:51:11;2.97;;;0.88;;
22166;SDS011;11249;52.468;13.776;2023-07-20T10:53:40;2.05;;;0.90;;
22166;SDS011;11249;52.468;13.776;2023-07-20T10:56:41;0.65;;;0.60;;
22166;SDS011;11249;52.468;13.776;2023-07-20T10:59:00;0.55;;;0.55;;
22166;SDS011;11249;52.468;13.776;2023-07-20T11:01:43;1.25;;;0.70;;
22166;SDS011;11249;52.468;13.776;2023-07-20T11:04:11;1.00;;;0.88;;
22166;SDS011;11249;52.468;13.776;2023-07-20T11:06:38;2.67;;;0.75;;
22166;SDS011;11249;52.468;13.776;2023-07-20T11:09:10;2.28;;;1.15;;
22166;SDS011;11249;52.468;13.776;2023-07-20T11:11:44;2.08;;;0.98;;
22166;SDS011;11249;52.468;13.776;2023-07-20T11:14:20;1.55;;;0.90;;
22166;SDS011;11249;52.468;13.776;2023-07-20T11:16:52;1.95;;;1.00;;
22166;SDS011;11249;52.468;13.776;2023-07-20T11:19:19;2.15;;;0.90;;
22166;SDS011;11249;52.468;13.776;2023-07-20T11:21:56;1.17;;;0.68;;
22166;SDS011;11249;52.468;13.776;2023-07-20T11:24:29;1.90;;;0.70;;
22166;SDS011;11249;52.468;13.776;2023-07-20T11:26:56;1.95;;;1.00;;
22166;SDS011;11249;52.468;13.776;2023-07-20T11:29:23;2.55;;;1.00;;
22166;SDS011;11249;52.468;13.776;2023-07-20T11:31:58;1.38;;;0.93;;
22166;SDS011;11249;52.468;13.776;2023-07-20T11:34:25;1.85;;;0.75;;
22166;SDS011;11249;52.468;13.776;2023-07-20T11:36:53;1.20;;;0.75;;
22166;SDS011;11249;52.468;13.776;2023-07-20T11:39:23;2.97;;;0.80;;
22166;SDS011;11249;52.468;13.776;2023-07-20T11:41:52;1.02;;;0.68;;
22166;SDS011;11249;52.468;13.776;2023-07-20T11:44:26;1.45;;;0.75;;
22166;SDS011;11249;52.468;13.776;2023-07-20T11:47:01;2.03;;;0.77;;
22166;SDS011;11249;52.468;13.776;2023-07-20T11:49:30;1.23;;;0.70;;
22166;SDS011;11249;52.468;13.776;2023-07-20T11:52:01;0.77;;;0.77;;
22166;SDS011;11249;52.468;13.776;2023-07-20T11:54:29;0.60;;;0.60;;
22166;SDS011;11249;52.468;13.776;2023-07-20T11:56:56;1.38;;;0.85;;
22166;SDS011;11249;52.468;13.776;2023-07-20T11:59:23;1.38;;;0.70;;
22166;SDS011;11249;52.468;13.776;2023-07-20T12:01:50;1.40;;;0.73;;
22166;SDS011;11249;52.468;13.776;2023-07-20T12:04:18;1.98;;;0.80;;
22166;SDS011;11249;52.468;13.776;2023-07-20T12:06:45;3.60;;;0.95;;
22166;SDS011;11249;52.468;13.776;2023-07-20T12:09:16;1.42;;;0.68;;
22166;SDS011;11249;52.468;13.776;2023-07-20T12:11:44;1.63;;;0.65;;
22166;SDS011;11249;52.468;13.776;2023-07-20T12:14:13;2.50;;;0.90;;
22166;SDS011;11249;52.468;13.776;2023-07-20T12:16:43;1.52;;;0.73;;
22166;SDS011;11249;52.468;13.776;2023-07-20T12:19:11;1.83;;;0.88;;
22166;SDS011;11249;52.468;13.776;2023-07-20T12:21:39;1.20;;;0.70;;
22166;SDS011;11249;52.468;13.776;2023-07-20T12:24:08;3.40;;;0.80;;
22166;SDS011;11249;52.468;13.776;2023-07-20T12:26:37;1.00;;;0.60;;
22166;SDS011;11249;52.468;13.776;2023-07-20T12:29:04;2.70;;;0.77;;
22166;SDS011;11249;52.468;13.776;2023-07-20T12:31:33;0.70;;;0.50;;
22166;SDS011;11249;52.468;13.776;2023-07-20T12:34:02;1.60;;;0.80;;
22166;SDS011;11249;52.468;13.776;2023-07-20T12:36:29;1.33;;;0.50;;
22166;SDS011;11249;52.468;13.776;2023-07-20T12:38:57;1.08;;;0.60;;
22166;SDS011;11249;52.468;13.776;2023-07-20T12:41:24;0.30;;;0.30;;
22166;SDS011;11249;52.468;13.776;2023-07-20T12:43:51;1.33;;;0.88;;
22166;SDS011;11249;52.468;13.776;2023-07-20T12:46:19;0.50;;;0.50;;
22166;SDS011;11249;52.468;13.776;2023-07-20T12:48:47;0.60;;;0.60;;
22166;SDS011;11249;52.468;13.776;2023-07-20T12:51:15;2.58;;;0.73;;
22166;SDS011;11249;52.468;13.776;2023-07-20T12:53:42;1.05;;;0.60;;
22166;SDS011;11249;52.468;13.776;2023-07-20T12:56:08;1.75;;;0.70;;
22166;SDS011;11249;52.468;13.776;2023-07-20T12:58:38;1.15;;;0.80;;
22166;SDS011;11249;52.468;13.776;2023-07-20T13:01:05;1.75;;;0.73;;
22166;SDS011;11249;52.468;13.776;2023-07-20T13:03:32;1.55;;;0.70;;
22166;SDS011;11249;52.468;13.776;2023-07-20T13:06:00;1.45;;;0.80;;
22166;SDS011;11249;52.468;13.776;2023-07-20T13:08:29;1.52;;;0.70;;
22166;SDS011;11249;52.468;13.776;2023-07-20T13:10:56;2.90;;;0.90;;
22166;SDS011;11249;52.468;13.776;2023-07-20T13:13:23;1.55;;;0.50;;
22166;SDS011;11249;52.468;13.776;2023-07-20T13:15:49;1.00;;;0.60;;
22166;SDS011;11249;52.468;13.776;2023-07-20T13:18:16;2.83;;;0.57;;
22166;SDS011;11249;52.468;13.776;2023-07-20T13:20:45;1.33;;;0.55;;
22166;SDS011;11249;52.468;13.776;2023-07-20T13:23:11;1.10;;;0.50;;
22166;SDS011;11249;52.468;13.776;2023-07-20T13:25:38;0.82;;;0.60;;
22166;SDS011;11249;52.468;13.776;2023-07-20T13:28:05;0.50;;;0.50;;
22166;SDS011;11249;52.468;13.776;2023-07-20T13:30:32;0.80;;;0.60;;
22166;SDS011;11249;52.468;13.776;2023-07-20T13:32:59;1.80;;;0.68;;
22166;SDS011;11249;52.468;13.776;2023-07-20T13:35:31;1.02;;;0.60;;
22166;SDS011;11249;52.468;13.776;2023-07-20T13:38:01;0.95;;;0.60;;
22166;SDS011;11249;52.468;13.776;2023-07-20T13:40:28;1.38;;;0.63;;
22166;SDS011;11249;52.468;13.776;2023-07-20T13:42:54;2.08;;;0.60;;
22166;SDS011;11249;52.468;13.776;2023-07-20T13:45:21;2.28;;;0.52;;
22166;SDS011;11249;52.468;13.776;2023-07-20T13:47:48;2.15;;;0.50;;
22166;SDS011;11249;52.468;13.776;2023-07-20T13:50:16;2.15;;;0.60;;
22166;SDS011;11249;52.468;13.776;2023-07-20T13:52:46;1.20;;;0.57;;
22166;SDS011;11249;52.468;13.776;2023-07-20T13:55:13;1.17;;;0.60;;
22166;SDS011;11249;52.468;13.776;2023-07-20T13:57:40;0.75;;;0.52;;
22166;SDS011;11249;52.468;13.776;2023-07-20T14:00:09;1.90;;;0.70;;
22166;SDS011;11249;52.468;13.776;2023-07-20T14:02:37;1.15;;;0.70;;
22166;SDS011;11249;52.468;13.776;2023-07-20T14:05:07;0.82;;;0.60;;
22166;SDS011;11249;52.468;13.776;2023-07-20T14:07:38;0.45;;;0.30;;
22166;SDS011;11249;52.468;13.776;2023-07-20T14:10:06;1.10;;;0.43;;
22166;SDS011;11249;52.468;13.776;2023-07-20T14:12:35;3.03;;;0.75;;
22166;SDS011;11249;52.468;13.776;2023-07-20T14:15:03;0.50;;;0.50;;
22166;SDS011;11249;52.468;13.776;2023-07-20T14:17:31;0.80;;;0.65;;
22166;SDS011;11249;52.468;13.776;2023-07-20T14:19:58;1.67;;;0.77;;
22166;SDS011;11249;52.468;13.776;2023-07-20T14:22:25;0.63;;;0.52;;
22166;SDS011;11249;52.468;13.776;2023-07-20T14:24:52;1.50;;;0.50;;
22166;SDS011;11249;52.468;13.776;2023-07-20T14:27:19;3.90;;;0.50;;
22166;SDS011;11249;52.468;13.776;2023-07-20T14:29:46;0.80;;;0.40;;
22166;SDS011;11249;52.468;13.776;2023-07-20T14:32:13;2.70;;;1.00;;
22166;SDS011;11249;52.468;13.776;2023-07-20T14:34:39;0.80;;;0.52;;
22166;SDS011;11249;52.468;13.776;2023-07-20T14:37:07;1.67;;;0.60;;
22166;SDS011;11249;52.468;13.776;2023-07-20T14:39:33;0.40;;;0.40;;